sensor_id;sensor_type;location;lat;lon;timestamp;pressure;altitude;pressure_sealevel;temperature;humidity
6393;BME280;3229;42.674;23.282;2023-05-02T00:00:41;94928.66;;;16.60;49.87
6393;BME280;3229;42.674;23.282;2023-05-02T00:03:09;94925.47;;;16.58;49.91
6393;BME280;3229;42.674;23.282;2023-05-02T00:05:37;94916.59;;;16.52;49.85
6393;BME280;3229;42.674;23.282;2023-05-02T00:08:05;94921.75;;;16.52;49.75
6393;BME280;3229;42.674;23.282;2023-05-02T00:10:33;94896.19;;;16.35;50.06
6393;BME280;3229;42.674;23.282;2023-05-02T00:13:00;94914.84;;;16.45;50.26
6393;BME280;3229;42.674;23.282;2023-05-02T00:15:27;94921.63;;;16.46;50.34
6393;BME280;3229;42.674;23.282;2023-05-02T00:17:54;94919.19;;;16.44;50.45
6393;BME280;3229;42.674;23.282;2023-05-02T00:20:21;94921.78;;;16.44;50.52
6393;BME280;3229;42.674;23.282;2023-05-02T00:22:48;94925.16;;;16.45;50.62
6393;BME280;3229;42.674;23.282;2023-05-02T00:25:15;94923.56;;;16.44;50.65
6393;BME280;3229;42.674;23.282;2023-05-02T00:27:43;94927.31;;;16.41;50.61
6393;BME280;3229;42.674;23.282;2023-05-02T00:30:11;94935.34;;;16.46;50.73
6393;BME280;3229;42.674;23.282;2023-05-02T00:32:38;94939.53;;;16.47;51.10
6393;BME280;3229;42.674;23.282;2023-05-02T00:35:06;94939.34;;;16.49;50.89
6393;BME280;3229;42.674;23.282;2023-05-02T00:37:34;94940.19;;;16.49;50.89
6393;BME280;3229;42.674;23.282;2023-05-02T00:40:00;94947.75;;;16.51;51.02
6393;BME280;3229;42.674;23.282;2023-05-02T00:42:27;94956.13;;;16.53;51.13
6393;BME280;3229;42.674;23.282;2023-05-02T00:44:57;94954.34;;;16.53;51.10
6393;BME280;3229;42.674;23.282;2023-05-02T00:47:24;94958.56;;;16.54;51.04
6393;BME280;3229;42.674;23.282;2023-05-02T00:49:51;94962.72;;;16.55;51.02
6393;BME280;3229;42.674;23.282;2023-05-02T00:52:18;94938.06;;;16.45;51.13
6393;BME280;3229;42.674;23.282;2023-05-02T00:54:46;94953.22;;;16.56;51.09
6393;BME280;3229;42.674;23.282;2023-05-02T00:57:13;94945.00;;;16.52;51.26
6393;BME280;3229;42.674;23.282;2023-05-02T00:59:40;94944.66;;;16.55;51.32
6393;BME280;3229;42.674;23.282;2023-05-02T01:02:21;94945.28;;;16.58;51.50
6393;BME280;3229;42.674;23.282;2023-05-02T01:04:59;94946.25;;;16.56;51.14
6393;BME280;3229;42.674;23.282;2023-05-02T01:07:38;94943.69;;;16.56;51.24
6393;BME280;3229;42.674;23.282;2023-05-02T01:10:17;94870.47;;;16.10;51.42
6393;BME280;3229;42.674;23.282;2023-05-02T01:12:50;94938.69;;;16.55;51.34
6393;BME280;3229;42.674;23.282;2023-05-02T01:15:21;94946.44;;;16.55;51.56
6393;BME280;3229;42.674;23.282;2023-05-02T01:17:51;94944.84;;;16.54;51.52
6393;BME280;3229;42.674;23.282;2023-05-02T01:20:20;94936.44;;;16.52;51.56
6393;BME280;3229;42.674;23.282;2023-05-02T01:22:49;94934.84;;;16.51;51.90
6393;BME280;3229;42.674;23.282;2023-05-02T01:25:23;94929.03;;;16.49;51.95
6393;BME280;3229;42.674;23.282;2023-05-02T01:27:59;94923.25;;;16.47;52.08
6393;BME280;3229;42.674;23.282;2023-05-02T01:30:31;94911.47;;;16.44;52.05
6393;BME280;3229;42.674;23.282;2023-05-02T01:33:01;94932.75;;;16.46;52.18
6393;BME280;3229;42.674;23.282;2023-05-02T01:35:29;94925.53;;;16.42;52.48
6393;BME280;3229;42.674;23.282;2023-05-02T01:37:58;94927.13;;;16.43;52.51
6393;BME280;3229;42.674;23.282;2023-05-02T01:40:26;94913.28;;;16.27;52.83
6393;BME280;3229;42.674;23.282;2023-05-02T01:42:53;94935.06;;;16.41;52.74
6393;BME280;3229;42.674;23.282;2023-05-02T01:45:21;94927.81;;;16.37;52.64
6393;BME280;3229;42.674;23.282;2023-05-02T01:47:51;94938.13;;;16.37;52.75
6393;BME280;3229;42.674;23.282;2023-05-02T01:50:20;94936.50;;;16.36;52.94
6393;BME280;3229;42.674;23.282;2023-05-02T01:52:51;94932.50;;;16.33;53.20
6393;BME280;3229;42.674;23.282;2023-05-02T01:55:19;94931.03;;;16.30;53.08
6393;BME280;3229;42.674;23.282;2023-05-02T01:57:47;94925.06;;;16.30;53.62
6393;BME280;3229;42.674;23.282;2023-05-02T02:00:16;94928.63;;;16.29;53.44
6393;BME280;3229;42.674;23.282;2023-05-02T02:02:45;94933.16;;;16.27;53.72
6393;BME280;3229;42.674;23.282;2023-05-02T02:05:15;94914.78;;;16.22;53.89
6393;BME280;3229;42.674;23.282;2023-05-02T02:07:44;94919.13;;;16.21;53.83
6393;BME280;3229;42.674;23.282;2023-05-02T02:10:11;94925.28;;;16.20;54.13
6393;BME280;3229;42.674;23.282;2023-05-02T02:12:41;94912.88;;;16.16;54.05
6393;BME280;3229;42.674;23.282;2023-05-02T02:15:15;94919.63;;;16.17;54.07
6393;BME280;3229;42.674;23.282;2023-05-02T02:17:48;94886.81;;;15.94;54.19
6393;BME280;3229;42.674;23.282;2023-05-02T02:20:21;94911.41;;;16.13;54.39
6393;BME280;3229;42.674;23.282;2023-05-02T02:22:48;94921.91;;;16.12;54.50
6393;BME280;3229;42.674;23.282;2023-05-02T02:25:16;94919.19;;;16.05;54.57
6393;BME280;3229;42.674;23.282;2023-05-02T02:27:43;94924.81;;;16.09;54.47
6393;BME280;3229;42.674;23.282;2023-05-02T02:30:11;94902.78;;;15.90;54.73
6393;BME280;3229;42.674;23.282;2023-05-02T02:32:38;94927.56;;;16.07;54.76
6393;BME280;3229;42.674;23.282;2023-05-02T02:35:05;94929.34;;;16.07;54.76
6393;BME280;3229;42.674;23.282;2023-05-02T02:37:36;94921.28;;;16.01;54.76
6393;BME280;3229;42.674;23.282;2023-05-02T02:40:08;94940.00;;;16.03;54.61
6393;BME280;3229;42.674;23.282;2023-05-02T02:42:43;94929.69;;;16.03;54.85
6393;BME280;3229;42.674;23.282;2023-05-02T02:45:22;94942.75;;;16.02;54.53
6393;BME280;3229;42.674;23.282;2023-05-02T02:48:01;94937.59;;;16.02;54.90
6393;BME280;3229;42.674;23.282;2023-05-02T02:50:31;94942.59;;;15.95;54.81
6393;BME280;3229;42.674;23.282;2023-05-02T02:53:04;94947.44;;;15.98;54.60
6393;BME280;3229;42.674;23.282;2023-05-02T02:55:37;94952.72;;;15.97;54.59
6393;BME280;3229;42.674;23.282;2023-05-02T02:58:20;94956.28;;;15.96;54.71
6393;BME280;3229;42.674;23.282;2023-05-02T03:00:52;94960.81;;;15.94;54.36
6393;BME280;3229;42.674;23.282;2023-05-02T03:03:21;94971.13;;;15.94;54.55
6393;BME280;3229;42.674;23.282;2023-05-02T03:05:49;94960.16;;;15.92;54.49
6393;BME280;3229;42.674;23.282;2023-05-02T03:08:18;94969.69;;;15.91;54.58
6393;BME280;3229;42.674;23.282;2023-05-02T03:10:44;94974.22;;;15.89;54.38
6393;BME280;3229;42.674;23.282;2023-05-02T03:13:11;94967.09;;;15.83;54.16
6393;BME280;3229;42.674;23.282;2023-05-02T03:18:55;94988.41;;;15.85;54.20
6393;BME280;3229;42.674;23.282;2023-05-02T03:21:22;94985.16;;;15.83;54.20
6393;BME280;3229;42.674;23.282;2023-05-02T03:23:50;94980.97;;;15.82;54.31
6393;BME280;3229;42.674;23.282;2023-05-02T03:26:17;94984.34;;;15.83;54.33
6393;BME280;3229;42.674;23.282;2023-05-02T03:28:44;94983.56;;;15.82;54.16
6393;BME280;3229;42.674;23.282;2023-05-02T03:31:11;94986.94;;;15.83;54.16
6393;BME280;3229;42.674;23.282;2023-05-02T03:33:38;94982.44;;;15.85;54.22
6393;BME280;3229;42.674;23.282;2023-05-02T03:36:06;94979.69;;;15.86;54.27
6393;BME280;3229;42.674;23.282;2023-05-02T03:38:33;94976.63;;;15.83;54.39
6393;BME280;3229;42.674;23.282;2023-05-02T03:41:01;94980.81;;;15.92;54.15
6393;BME280;3229;42.674;23.282;2023-05-02T03:43:28;94985.63;;;15.95;54.11
6393;BME280;3229;42.674;23.282;2023-05-02T03:45:55;94986.13;;;15.98;54.00
6393;BME280;3229;42.674;23.282;2023-05-02T03:48:22;94990.78;;;16.03;54.15
6393;BME280;3229;42.674;23.282;2023-05-02T03:50:49;94987.72;;;16.08;54.06
6393;BME280;3229;42.674;23.282;2023-05-02T03:53:16;94989.81;;;16.12;54.41
6393;BME280;3229;42.674;23.282;2023-05-02T03:55:43;94987.72;;;16.16;54.24
6393;BME280;3229;42.674;23.282;2023-05-02T03:58:11;94981.06;;;16.21;54.25
6393;BME280;3229;42.674;23.282;2023-05-02T04:00:38;94986.38;;;16.28;54.17
6393;BME280;3229;42.674;23.282;2023-05-02T04:03:05;94905.88;;;15.85;54.04
6393;BME280;3229;42.674;23.282;2023-05-02T04:05:32;94994.56;;;16.40;53.96
6393;BME280;3229;42.674;23.282;2023-05-02T04:08:00;94966.19;;;16.31;53.97
6393;BME280;3229;42.674;23.282;2023-05-02T04:10:27;94993.91;;;16.54;53.92
6393;BME280;3229;42.674;23.282;2023-05-02T04:12:53;94993.03;;;16.62;53.76
6393;BME280;3229;42.674;23.282;2023-05-02T04:15:21;94989.63;;;16.69;53.53
6393;BME280;3229;42.674;23.282;2023-05-02T04:17:48;94991.72;;;16.74;53.41
6393;BME280;3229;42.674;23.282;2023-05-02T04:20:15;94982.34;;;16.81;53.51
6393;BME280;3229;42.674;23.282;2023-05-02T04:22:42;94983.44;;;16.87;53.30
6393;BME280;3229;42.674;23.282;2023-05-02T04:25:10;94982.31;;;16.89;53.39
6393;BME280;3229;42.674;23.282;2023-05-02T04:27:37;94993.22;;;16.99;53.49
6393;BME280;3229;42.674;23.282;2023-05-02T04:30:05;94991.13;;;17.03;53.24
6393;BME280;3229;42.674;23.282;2023-05-02T04:32:33;94986.72;;;17.12;53.26
6393;BME280;3229;42.674;23.282;2023-05-02T04:35:00;94981.31;;;17.21;53.04
6393;BME280;3229;42.674;23.282;2023-05-02T04:37:27;94971.09;;;17.28;52.91
6393;BME280;3229;42.674;23.282;2023-05-02T04:39:54;94994.38;;;17.51;52.83
6393;BME280;3229;42.674;23.282;2023-05-02T04:42:21;94980.56;;;17.82;52.38
6393;BME280;3229;42.674;23.282;2023-05-02T04:44:48;94986.44;;;18.28;51.65
6393;BME280;3229;42.674;23.282;2023-05-02T04:47:15;94981.69;;;18.91;59.59
6393;BME280;3229;42.674;23.282;2023-05-02T04:49:43;94967.69;;;19.43;60.53
6393;BME280;3229;42.674;23.282;2023-05-02T04:52:10;94997.94;;;20.28;59.42
6393;BME280;3229;42.674;23.282;2023-05-02T04:54:37;94988.72;;;20.95;57.71
6393;BME280;3229;42.674;23.282;2023-05-02T04:57:04;94993.53;;;21.59;55.90
6393;BME280;3229;42.674;23.282;2023-05-02T04:59:32;94990.16;;;22.18;54.45
6393;BME280;3229;42.674;23.282;2023-05-02T05:01:59;94987.81;;;22.75;53.18
6393;BME280;3229;42.674;23.282;2023-05-02T05:04:26;94988.84;;;23.25;51.77
6393;BME280;3229;42.674;23.282;2023-05-02T05:06:54;94980.16;;;23.70;50.07
6393;BME280;3229;42.674;23.282;2023-05-02T05:09:21;94984.28;;;24.09;48.69
6393;BME280;3229;42.674;23.282;2023-05-02T05:11:47;94989.88;;;24.38;47.37
6393;BME280;3229;42.674;23.282;2023-05-02T05:14:14;94989.31;;;24.72;46.30
6393;BME280;3229;42.674;23.282;2023-05-02T05:16:41;94983.22;;;24.97;45.29
6393;BME280;3229;42.674;23.282;2023-05-02T05:19:08;94982.53;;;25.20;44.68
6393;BME280;3229;42.674;23.282;2023-05-02T05:21:35;94985.91;;;25.39;44.08
6393;BME280;3229;42.674;23.282;2023-05-02T05:24:03;94993.75;;;25.69;43.26
6393;BME280;3229;42.674;23.282;2023-05-02T05:26:31;95005.47;;;25.96;43.06
6393;BME280;3229;42.674;23.282;2023-05-02T05:28:57;95003.19;;;26.23;42.72
6393;BME280;3229;42.674;23.282;2023-05-02T05:31:24;95005.63;;;26.48;42.78
6393;BME280;3229;42.674;23.282;2023-05-02T05:33:51;95003.78;;;26.72;42.92
6393;BME280;3229;42.674;23.282;2023-05-02T05:36:18;95005.56;;;26.95;42.43
6393;BME280;3229;42.674;23.282;2023-05-02T05:38:45;95006.22;;;27.14;41.68
6393;BME280;3229;42.674;23.282;2023-05-02T05:41:13;95010.28;;;27.34;40.88
6393;BME280;3229;42.674;23.282;2023-05-02T05:43:40;95010.41;;;27.56;40.96
6393;BME280;3229;42.674;23.282;2023-05-02T05:46:07;95026.09;;;27.79;40.07
6393;BME280;3229;42.674;23.282;2023-05-02T05:48:33;95014.53;;;27.97;39.76
6393;BME280;3229;42.674;23.282;2023-05-02T05:51:05;95017.50;;;28.17;39.02
6393;BME280;3229;42.674;23.282;2023-05-02T05:53:33;95007.31;;;28.38;38.39
6393;BME280;3229;42.674;23.282;2023-05-02T05:56:07;95009.69;;;28.56;38.15
6393;BME280;3229;42.674;23.282;2023-05-02T05:58:36;95019.38;;;28.72;37.19
6393;BME280;3229;42.674;23.282;2023-05-02T06:01:03;95030.91;;;28.88;36.73
6393;BME280;3229;42.674;23.282;2023-05-02T06:03:30;95032.66;;;28.99;36.64
6393;BME280;3229;42.674;23.282;2023-05-02T06:05:57;95022.81;;;29.12;35.69
6393;BME280;3229;42.674;23.282;2023-05-02T06:08:24;95024.28;;;29.24;35.57
6393;BME280;3229;42.674;23.282;2023-05-02T06:10:50;95026.84;;;29.41;35.45
6393;BME280;3229;42.674;23.282;2023-05-02T06:13:17;94976.81;;;29.19;35.01
6393;BME280;3229;42.674;23.282;2023-05-02T06:15:45;95033.72;;;29.69;34.87
6393;BME280;3229;42.674;23.282;2023-05-02T06:18:12;95039.66;;;29.82;34.27
6393;BME280;3229;42.674;23.282;2023-05-02T06:20:39;95033.66;;;29.91;34.21
6393;BME280;3229;42.674;23.282;2023-05-02T06:23:06;95035.34;;;30.03;34.19
6393;BME280;3229;42.674;23.282;2023-05-02T06:25:36;95034.16;;;30.15;33.53
6393;BME280;3229;42.674;23.282;2023-05-02T06:28:03;95038.22;;;30.28;33.46
6393;BME280;3229;42.674;23.282;2023-05-02T06:30:30;95039.88;;;30.39;33.28
6393;BME280;3229;42.674;23.282;2023-05-02T06:32:58;95046.53;;;30.47;32.73
6393;BME280;3229;42.674;23.282;2023-05-02T06:35:25;95030.50;;;30.54;32.97
6393;BME280;3229;42.674;23.282;2023-05-02T06:37:52;95033.44;;;30.62;32.58
6393;BME280;3229;42.674;23.282;2023-05-02T06:40:18;95037.44;;;30.70;32.31
6393;BME280;3229;42.674;23.282;2023-05-02T06:42:45;95034.59;;;30.77;32.23
6393;BME280;3229;42.674;23.282;2023-05-02T06:45:12;95030.66;;;30.79;32.01
6393;BME280;3229;42.674;23.282;2023-05-02T06:47:39;95050.50;;;30.87;31.54
6393;BME280;3229;42.674;23.282;2023-05-02T06:50:08;95031.22;;;30.91;31.75
6393;BME280;3229;42.674;23.282;2023-05-02T06:52:35;95033.13;;;30.96;31.67
6393;BME280;3229;42.674;23.282;2023-05-02T06:55:02;95032.38;;;31.06;31.26
6393;BME280;3229;42.674;23.282;2023-05-02T06:57:29;95029.19;;;31.09;31.52
6393;BME280;3229;42.674;23.282;2023-05-02T06:59:56;95026.34;;;31.15;31.15
6393;BME280;3229;42.674;23.282;2023-05-02T07:02:23;95036.94;;;31.26;31.22
6393;BME280;3229;42.674;23.282;2023-05-02T07:04:50;95031.44;;;31.32;31.41
6393;BME280;3229;42.674;23.282;2023-05-02T07:07:18;95039.38;;;31.37;31.13
6393;BME280;3229;42.674;23.282;2023-05-02T07:09:46;95033.84;;;31.39;31.02
6393;BME280;3229;42.674;23.282;2023-05-02T07:12:13;95044.41;;;31.39;30.46
6393;BME280;3229;42.674;23.282;2023-05-02T07:14:40;95059.75;;;31.42;30.83
6393;BME280;3229;42.674;23.282;2023-05-02T07:17:07;95048.13;;;31.43;30.80
6393;BME280;3229;42.674;23.282;2023-05-02T07:19:34;95046.53;;;31.42;30.17
6393;BME280;3229;42.674;23.282;2023-05-02T07:22:00;95046.00;;;31.40;30.46
6393;BME280;3229;42.674;23.282;2023-05-02T07:24:29;95048.66;;;31.45;30.43
6393;BME280;3229;42.674;23.282;2023-05-02T07:26:55;95044.16;;;31.45;30.36
6393;BME280;3229;42.674;23.282;2023-05-02T07:29:22;95041.03;;;31.48;30.11
6393;BME280;3229;42.674;23.282;2023-05-02T07:31:49;95044.72;;;31.53;30.36
6393;BME280;3229;42.674;23.282;2023-05-02T07:34:16;95046.31;;;31.54;29.78
6393;BME280;3229;42.674;23.282;2023-05-02T07:36:43;95041.00;;;31.43;30.17
6393;BME280;3229;42.674;23.282;2023-05-02T07:39:09;95045.75;;;31.52;30.08
6393;BME280;3229;42.674;23.282;2023-05-02T07:41:38;95055.53;;;31.46;29.99
6393;BME280;3229;42.674;23.282;2023-05-02T07:44:04;95049.19;;;31.47;29.73
6393;BME280;3229;42.674;23.282;2023-05-02T07:46:31;95063.97;;;31.43;29.96
6393;BME280;3229;42.674;23.282;2023-05-02T07:48:58;95069.03;;;31.39;29.76
6393;BME280;3229;42.674;23.282;2023-05-02T07:51:25;95068.72;;;31.31;29.87
6393;BME280;3229;42.674;23.282;2023-05-02T07:53:52;95057.28;;;31.25;30.00
6393;BME280;3229;42.674;23.282;2023-05-02T07:56:22;95051.72;;;31.21;29.60
6393;BME280;3229;42.674;23.282;2023-05-02T07:58:50;95040.06;;;31.12;29.68
6393;BME280;3229;42.674;23.282;2023-05-02T08:01:17;95042.97;;;31.16;29.35
6393;BME280;3229;42.674;23.282;2023-05-02T08:03:44;95048.53;;;31.14;29.71
6393;BME280;3229;42.674;23.282;2023-05-02T08:06:11;95047.69;;;31.09;29.82
6393;BME280;3229;42.674;23.282;2023-05-02T08:08:38;95047.16;;;31.07;29.74
6393;BME280;3229;42.674;23.282;2023-05-02T08:11:05;95050.31;;;31.04;29.45
6393;BME280;3229;42.674;23.282;2023-05-02T08:13:32;95056.38;;;30.99;29.59
6393;BME280;3229;42.674;23.282;2023-05-02T08:16:00;95051.88;;;30.94;30.15
6393;BME280;3229;42.674;23.282;2023-05-02T08:18:27;95042.94;;;30.63;30.08
6393;BME280;3229;42.674;23.282;2023-05-02T08:20:54;95040.28;;;30.21;30.62
6393;BME280;3229;42.674;23.282;2023-05-02T08:23:21;95042.28;;;30.14;31.01
6393;BME280;3229;42.674;23.282;2023-05-02T08:25:47;95041.81;;;30.17;31.12
6393;BME280;3229;42.674;23.282;2023-05-02T08:28:14;95049.00;;;30.27;30.83
6393;BME280;3229;42.674;23.282;2023-05-02T08:30:41;95019.72;;;30.23;31.09
6393;BME280;3229;42.674;23.282;2023-05-02T08:33:11;95044.94;;;30.46;30.98
6393;BME280;3229;42.674;23.282;2023-05-02T08:35:37;95044.13;;;30.78;30.89
6393;BME280;3229;42.674;23.282;2023-05-02T08:38:04;95054.88;;;31.13;30.44
6393;BME280;3229;42.674;23.282;2023-05-02T08:40:34;95039.19;;;31.54;30.10
6393;BME280;3229;42.674;23.282;2023-05-02T08:43:02;95045.38;;;32.01;29.83
6393;BME280;3229;42.674;23.282;2023-05-02T08:45:30;95053.59;;;32.40;29.70
6393;BME280;3229;42.674;23.282;2023-05-02T08:48:05;95045.91;;;32.69;29.20
6393;BME280;3229;42.674;23.282;2023-05-02T08:50:37;95040.03;;;32.72;29.38
6393;BME280;3229;42.674;23.282;2023-05-02T08:53:06;95038.47;;;32.66;29.53
6393;BME280;3229;42.674;23.282;2023-05-02T08:55:35;95037.97;;;32.54;29.34
6393;BME280;3229;42.674;23.282;2023-05-02T08:58:04;95034.53;;;32.38;29.86
6393;BME280;3229;42.674;23.282;2023-05-02T09:00:32;95036.09;;;32.23;29.85
6393;BME280;3229;42.674;23.282;2023-05-02T09:03:06;95036.13;;;32.13;30.30
6393;BME280;3229;42.674;23.282;2023-05-02T09:05:40;95035.84;;;32.10;30.10
6393;BME280;3229;42.674;23.282;2023-05-02T09:08:07;95029.47;;;32.16;29.82
6393;BME280;3229;42.674;23.282;2023-05-02T09:10:34;95027.09;;;32.25;29.66
6393;BME280;3229;42.674;23.282;2023-05-02T09:13:27;95035.59;;;32.21;29.55
6393;BME280;3229;42.674;23.282;2023-05-02T09:15:56;95026.06;;;32.10;29.97
6393;BME280;3229;42.674;23.282;2023-05-02T09:18:23;95032.94;;;32.01;29.94
6393;BME280;3229;42.674;23.282;2023-05-02T09:20:51;95030.81;;;31.93;29.76
6393;BME280;3229;42.674;23.282;2023-05-02T09:23:18;95023.13;;;31.86;30.18
6393;BME280;3229;42.674;23.282;2023-05-02T09:25:46;95024.66;;;31.77;29.83
6393;BME280;3229;42.674;23.282;2023-05-02T09:28:13;95019.09;;;31.63;29.75
6393;BME280;3229;42.674;23.282;2023-05-02T09:30:40;95021.16;;;31.46;29.98
6393;BME280;3229;42.674;23.282;2023-05-02T09:33:07;95021.16;;;31.36;30.09
6393;BME280;3229;42.674;23.282;2023-05-02T09:35:34;95021.69;;;31.38;30.09
6393;BME280;3229;42.674;23.282;2023-05-02T09:38:03;95012.94;;;31.37;29.60
6393;BME280;3229;42.674;23.282;2023-05-02T09:40:29;95017.44;;;31.32;29.99
6393;BME280;3229;42.674;23.282;2023-05-02T09:42:57;95013.41;;;31.24;29.74
6393;BME280;3229;42.674;23.282;2023-05-02T09:45:25;94983.75;;;31.02;29.66
6393;BME280;3229;42.674;23.282;2023-05-02T09:47:52;95008.59;;;31.01;29.70
6393;BME280;3229;42.674;23.282;2023-05-02T09:50:32;95001.16;;;30.92;29.68
6393;BME280;3229;42.674;23.282;2023-05-02T09:53:00;95002.16;;;30.81;29.54
6393;BME280;3229;42.674;23.282;2023-05-02T09:55:29;94974.75;;;30.50;30.15
6393;BME280;3229;42.674;23.282;2023-05-02T09:57:56;95002.47;;;30.53;29.68
6393;BME280;3229;42.674;23.282;2023-05-02T10:00:37;95001.59;;;30.37;30.08
6393;BME280;3229;42.674;23.282;2023-05-02T10:03:05;95001.19;;;30.18;29.75
6393;BME280;3229;42.674;23.282;2023-05-02T10:05:35;94996.31;;;30.05;30.06
6393;BME280;3229;42.674;23.282;2023-05-02T10:08:03;94992.06;;;29.98;29.99
6393;BME280;3229;42.674;23.282;2023-05-02T10:10:32;94994.06;;;29.86;30.04
6393;BME280;3229;42.674;23.282;2023-05-02T10:13:02;94985.78;;;29.72;30.00
6393;BME280;3229;42.674;23.282;2023-05-02T10:15:30;94976.97;;;29.62;30.10
6393;BME280;3229;42.674;23.282;2023-05-02T10:17:59;94982.69;;;29.54;30.55
6393;BME280;3229;42.674;23.282;2023-05-02T10:20:30;94979.19;;;29.48;30.51
6393;BME280;3229;42.674;23.282;2023-05-02T10:22:58;94979.41;;;29.41;30.40
6393;BME280;3229;42.674;23.282;2023-05-02T10:25:26;94964.47;;;29.25;30.08
6393;BME280;3229;42.674;23.282;2023-05-02T10:27:56;94958.16;;;29.26;30.53
6393;BME280;3229;42.674;23.282;2023-05-02T10:30:24;94970.19;;;29.44;30.31
6393;BME280;3229;42.674;23.282;2023-05-02T10:32:52;94908.75;;;29.11;30.32
6393;BME280;3229;42.674;23.282;2023-05-02T10:35:20;94967.06;;;29.47;30.30
6393;BME280;3229;42.674;23.282;2023-05-02T10:37:49;94970.69;;;29.41;30.10
6393;BME280;3229;42.674;23.282;2023-05-02T10:40:17;94961.03;;;29.24;30.35
6393;BME280;3229;42.674;23.282;2023-05-02T10:42:46;94957.00;;;29.17;30.29
6393;BME280;3229;42.674;23.282;2023-05-02T10:45:31;94961.13;;;29.08;30.08
6393;BME280;3229;42.674;23.282;2023-05-02T10:48:17;94957.66;;;29.02;30.29
6393;BME280;3229;42.674;23.282;2023-05-02T10:50:46;94955.75;;;28.97;30.18
6393;BME280;3229;42.674;23.282;2023-05-02T10:53:27;94945.38;;;28.91;30.13
6393;BME280;3229;42.674;23.282;2023-05-02T10:56:13;94953.56;;;28.94;30.42
6393;BME280;3229;42.674;23.282;2023-05-02T10:58:41;94952.78;;;28.94;30.34
6393;BME280;3229;42.674;23.282;2023-05-02T11:01:36;94943.78;;;28.90;30.51
6393;BME280;3229;42.674;23.282;2023-05-02T11:04:08;94941.31;;;28.83;30.38
6393;BME280;3229;42.674;23.282;2023-05-02T11:06:36;94941.00;;;28.80;30.16
6393;BME280;3229;42.674;23.282;2023-05-02T11:09:30;94942.47;;;28.70;30.08
6393;BME280;3229;42.674;23.282;2023-05-02T11:11:58;94941.56;;;28.60;30.08
6393;BME280;3229;42.674;23.282;2023-05-02T11:14:43;94942.00;;;28.52;30.30
6393;BME280;3229;42.674;23.282;2023-05-02T11:17:13;94946.41;;;28.46;30.26
6393;BME280;3229;42.674;23.282;2023-05-02T11:22:54;94937.00;;;28.33;30.42
6393;BME280;3229;42.674;23.282;2023-05-02T11:25:37;94924.06;;;28.32;30.50
6393;BME280;3229;42.674;23.282;2023-05-02T11:28:06;94912.31;;;28.17;30.52
6393;BME280;3229;42.674;23.282;2023-05-02T11:30:42;94916.41;;;28.30;30.49
6393;BME280;3229;42.674;23.282;2023-05-02T11:33:13;94920.41;;;28.33;30.21
6393;BME280;3229;42.674;23.282;2023-05-02T11:35:42;94921.31;;;28.38;30.19
6393;BME280;3229;42.674;23.282;2023-05-02T11:38:12;94920.88;;;28.46;29.95
6393;BME280;3229;42.674;23.282;2023-05-02T11:40:39;94905.16;;;28.52;30.33
6393;BME280;3229;42.674;23.282;2023-05-02T11:43:13;94905.53;;;28.60;30.01
6393;BME280;3229;42.674;23.282;2023-05-02T11:45:40;94909.25;;;28.64;30.02
6393;BME280;3229;42.674;23.282;2023-05-02T11:48:08;94914.88;;;28.73;30.05
6393;BME280;3229;42.674;23.282;2023-05-02T11:50:42;94891.00;;;28.80;29.78
6393;BME280;3229;42.674;23.282;2023-05-02T11:53:10;94902.13;;;28.87;30.13
6393;BME280;3229;42.674;23.282;2023-05-02T11:55:43;94893.50;;;28.91;29.94
6393;BME280;3229;42.674;23.282;2023-05-02T11:58:14;94906.66;;;28.91;29.75
6393;BME280;3229;42.674;23.282;2023-05-02T12:00:43;94897.19;;;28.90;30.10
6393;BME280;3229;42.674;23.282;2023-05-02T12:03:25;94886.06;;;28.88;29.64
6393;BME280;3229;42.674;23.282;2023-05-02T12:05:54;94885.25;;;28.83;30.19
6393;BME280;3229;42.674;23.282;2023-05-02T12:08:23;94868.00;;;28.70;29.76
6393;BME280;3229;42.674;23.282;2023-05-02T12:10:52;94884.09;;;28.73;29.57
6393;BME280;3229;42.674;23.282;2023-05-02T12:13:20;94875.03;;;28.64;30.08
6393;BME280;3229;42.674;23.282;2023-05-02T12:15:48;94870.50;;;28.60;29.74
6393;BME280;3229;42.674;23.282;2023-05-02T12:18:16;94854.78;;;28.43;30.20
6393;BME280;3229;42.674;23.282;2023-05-02T12:20:43;94876.69;;;28.48;30.09
6393;BME280;3229;42.674;23.282;2023-05-02T12:23:12;94875.53;;;28.39;30.33
6393;BME280;3229;42.674;23.282;2023-05-02T12:25:40;94867.72;;;28.27;30.21
6393;BME280;3229;42.674;23.282;2023-05-02T12:28:08;94871.59;;;28.20;30.37
6393;BME280;3229;42.674;23.282;2023-05-02T12:30:36;94856.75;;;28.14;30.04
6393;BME280;3229;42.674;23.282;2023-05-02T12:33:04;94857.50;;;28.09;30.14
6393;BME280;3229;42.674;23.282;2023-05-02T12:35:32;94834.50;;;27.99;30.27
6393;BME280;3229;42.674;23.282;2023-05-02T12:38:10;94812.38;;;27.79;30.58
6393;BME280;3229;42.674;23.282;2023-05-02T12:40:48;94831.22;;;27.92;30.38
6393;BME280;3229;42.674;23.282;2023-05-02T12:43:16;94836.41;;;27.87;30.01
6393;BME280;3229;42.674;23.282;2023-05-02T12:45:43;94827.69;;;27.82;30.06
6393;BME280;3229;42.674;23.282;2023-05-02T12:48:22;94824.66;;;27.73;30.32
6393;BME280;3229;42.674;23.282;2023-05-02T12:50:50;94813.41;;;27.61;30.48
6393;BME280;3229;42.674;23.282;2023-05-02T12:53:17;94820.31;;;27.67;30.22
6393;BME280;3229;42.674;23.282;2023-05-02T12:56:05;94820.50;;;27.60;30.78
6393;BME280;3229;42.674;23.282;2023-05-02T12:58:39;94826.97;;;27.52;30.73
6393;BME280;3229;42.674;23.282;2023-05-02T13:01:07;94813.69;;;27.42;30.74
6393;BME280;3229;42.674;23.282;2023-05-02T13:03:35;94811.44;;;27.34;30.43
6393;BME280;3229;42.674;23.282;2023-05-02T13:06:02;94813.44;;;27.27;30.93
6393;BME280;3229;42.674;23.282;2023-05-02T13:08:28;94808.56;;;27.19;30.84
6393;BME280;3229;42.674;23.282;2023-05-02T13:10:55;94803.78;;;26.99;30.97
6393;BME280;3229;42.674;23.282;2023-05-02T13:13:23;94812.44;;;26.99;31.14
6393;BME280;3229;42.674;23.282;2023-05-02T13:15:50;94813.03;;;26.90;31.14
6393;BME280;3229;42.674;23.282;2023-05-02T13:18:17;94821.31;;;26.82;30.83
6393;BME280;3229;42.674;23.282;2023-05-02T13:20:44;94812.00;;;26.74;30.86
6393;BME280;3229;42.674;23.282;2023-05-02T13:23:11;94815.53;;;26.68;30.95
6393;BME280;3229;42.674;23.282;2023-05-02T13:25:37;94780.38;;;26.40;31.28